createdAt,value
2017-07-24T00:01:13.358Z,49.38
2017-07-24T00:03:40.871Z,49.39
2017-07-24T00:06:08.432Z,49.38
2017-07-24T00:08:35.946Z,49.33
2017-07-24T00:11:03.505Z,49.48
2017-07-24T00:13:31.032Z,49.43
2017-07-24T00:15:58.584Z,49.26
2017-07-24T00:18:26.104Z,49.77
2017-07-24T00:20:53.670Z,49.87
2017-07-24T00:23:21.185Z,49.72
2017-07-24T00:25:48.739Z,49.77
2017-07-24T00:28:16.266Z,49.94
2017-07-24T00:30:43.846Z,50.13
2017-07-24T00:33:11.371Z,50.09
2017-07-24T00:35:38.889Z,50.00
2017-07-24T00:38:06.437Z,50.01
2017-07-24T00:40:33.958Z,49.98
2017-07-24T00:43:01.502Z,50.04
2017-07-24T00:45:29.021Z,49.95
2017-07-24T00:47:56.573Z,50.07
2017-07-24T00:50:24.092Z,50.08
2017-07-24T00:52:51.638Z,50.00
2017-07-24T00:55:19.164Z,49.97
2017-07-24T00:57:46.711Z,50.04
2017-07-24T01:00:14.239Z,50.08
2017-07-24T01:02:41.796Z,50.08
2017-07-24T01:05:09.310Z,50.12
2017-07-24T01:07:36.860Z,50.02
2017-07-24T01:10:04.388Z,50.04
2017-07-24T01:12:31.936Z,49.79
2017-07-24T01:14:59.448Z,49.67
2017-07-24T01:17:27.005Z,49.81
2017-07-24T01:19:54.622Z,50.01
2017-07-24T01:22:22.190Z,49.99
2017-07-24T01:24:49.721Z,50.02
2017-07-24T01:27:17.253Z,50.13
2017-07-24T01:29:44.816Z,50.19
2017-07-24T01:32:12.341Z,50.20
2017-07-24T01:34:39.897Z,50.29
2017-07-24T01:37:07.435Z,50.26
2017-07-24T01:39:34.989Z,50.28
2017-07-24T01:42:02.532Z,50.39
2017-07-24T01:44:30.094Z,50.28
2017-07-24T01:46:57.616Z,50.28
2017-07-24T01:49:25.220Z,50.49
2017-07-24T01:51:52.762Z,50.51
2017-07-24T01:54:20.311Z,50.53
2017-07-24T01:56:47.869Z,50.28
2017-07-24T01:59:15.450Z,50.49
2017-07-24T02:01:43.120Z,50.65
2017-07-24T02:04:10.668Z,50.72
2017-07-24T02:06:38.188Z,50.83
2017-07-24T02:09:05.743Z,50.73
2017-07-24T02:11:33.264Z,50.56
2017-07-24T02:14:00.837Z,50.79
2017-07-24T02:16:28.368Z,50.57
2017-07-24T02:18:55.881Z,50.59
2017-07-24T02:21:23.428Z,50.41
2017-07-24T02:23:50.949Z,50.62
2017-07-24T02:26:18.498Z,50.68
2017-07-24T02:28:46.013Z,50.51
2017-07-24T02:31:13.564Z,50.63
2017-07-24T02:33:41.084Z,50.54
2017-07-24T02:36:08.646Z,50.69
2017-07-24T02:38:36.164Z,50.67
2017-07-24T02:41:03.722Z,50.73
2017-07-24T02:43:31.249Z,50.68
2017-07-24T02:45:58.806Z,50.77
2017-07-24T02:48:26.324Z,50.72
2017-07-24T02:50:53.904Z,50.78
2017-07-24T02:53:21.419Z,50.85
2017-07-24T02:55:48.964Z,50.68
2017-07-24T02:58:16.484Z,50.78
2017-07-24T03:00:44.044Z,50.68
2017-07-24T03:03:11.559Z,50.60
2017-07-24T03:05:39.211Z,50.62
2017-07-24T03:08:06.725Z,50.64
2017-07-24T03:10:34.247Z,50.56
2017-07-24T03:13:01.812Z,50.36
2017-07-24T03:15:29.406Z,50.44
2017-07-24T03:17:56.969Z,50.71
2017-07-24T03:20:24.481Z,50.73
2017-07-24T03:22:52.039Z,50.86
2017-07-24T03:25:19.640Z,50.99
2017-07-24T03:27:47.188Z,51.33
2017-07-24T03:30:14.706Z,51.33
2017-07-24T03:32:42.261Z,51.83
2017-07-24T03:35:09.792Z,51.70
2017-07-24T03:37:37.369Z,51.31
2017-07-24T03:40:04.892Z,51.38
2017-07-24T03:42:32.450Z,51.69
2017-07-24T03:44:59.965Z,51.37
2017-07-24T03:47:27.536Z,51.19
2017-07-24T03:49:55.058Z,51.55
2017-07-24T03:52:22.619Z,51.57
2017-07-24T03:54:50.151Z,51.67
2017-07-24T03:57:17.812Z,51.61
2017-07-24T03:59:45.334Z,51.50
2017-07-24T04:02:12.850Z,51.60
2017-07-24T04:04:40.401Z,51.47
2017-07-24T04:07:07.927Z,51.48
2017-07-24T04:09:35.496Z,51.57
2017-07-24T04:12:03.016Z,51.92
2017-07-24T04:14:30.568Z,51.53
2017-07-24T04:16:58.085Z,51.70
2017-07-24T04:19:25.628Z,51.83
2017-07-24T04:21:53.141Z,51.86
2017-07-24T04:24:20.689Z,51.72
2017-07-24T04:26:48.205Z,51.82
2017-07-24T04:29:15.753Z,52.11
2017-07-24T04:31:43.277Z,51.67
2017-07-24T04:34:10.831Z,51.50
2017-07-24T04:36:38.453Z,51.30
2017-07-24T04:39:06.113Z,51.23
2017-07-24T04:41:33.640Z,51.27
2017-07-24T04:44:01.190Z,51.22
2017-07-24T04:46:28.714Z,51.05
2017-07-24T04:48:56.237Z,51.84
2017-07-24T04:51:23.785Z,50.98
2017-07-24T04:53:51.354Z,51.71
2017-07-24T04:56:18.914Z,51.39
2017-07-24T04:58:46.439Z,52.50
2017-07-24T05:01:14.009Z,52.09
2017-07-24T05:03:41.525Z,54.17
2017-07-24T05:06:09.080Z,52.83
2017-07-24T05:08:36.603Z,53.16
2017-07-24T05:11:04.167Z,53.44
2017-07-24T05:13:31.692Z,53.01
2017-07-24T05:15:59.246Z,53.04
2017-07-24T05:18:26.767Z,52.95
2017-07-24T05:20:54.314Z,53.26
2017-07-24T05:23:21.830Z,53.17
2017-07-24T05:25:49.396Z,53.19
2017-07-24T05:28:16.962Z,53.20
2017-07-24T05:30:44.522Z,53.02
2017-07-24T05:33:12.043Z,52.81
2017-07-24T05:35:39.664Z,52.95
2017-07-24T05:38:07.181Z,52.96
2017-07-24T05:40:34.688Z,52.87
2017-07-24T05:43:02.244Z,53.00
2017-07-24T05:45:29.800Z,52.88
2017-07-24T05:47:57.353Z,52.92
2017-07-24T05:50:24.865Z,52.75
2017-07-24T05:52:52.415Z,52.84
2017-07-24T05:55:19.927Z,52.93
2017-07-24T05:57:47.472Z,52.90
2017-07-24T06:00:14.998Z,52.78
2017-07-24T06:02:42.544Z,52.85
2017-07-24T06:05:10.290Z,52.74
2017-07-24T06:07:37.851Z,52.62
2017-07-24T06:10:05.379Z,52.79
2017-07-24T06:12:32.934Z,52.80
2017-07-24T06:15:00.517Z,52.75
2017-07-24T06:17:28.062Z,52.77
2017-07-24T06:19:55.583Z,53.04
2017-07-24T06:22:23.150Z,52.81
2017-07-24T06:24:50.684Z,52.76
2017-07-24T06:27:18.253Z,52.87
2017-07-24T06:29:45.791Z,52.84
2017-07-24T06:32:13.311Z,52.84
2017-07-24T06:34:40.865Z,52.81
2017-07-24T06:37:08.395Z,52.72
2017-07-24T06:39:35.946Z,52.76
2017-07-24T06:42:03.474Z,52.80
2017-07-24T06:44:31.031Z,52.89
2017-07-24T06:46:58.569Z,52.62
2017-07-24T06:49:26.112Z,52.70
2017-07-24T06:51:53.636Z,52.67
2017-07-24T06:54:21.195Z,52.79
2017-07-24T06:56:48.724Z,52.70
2017-07-24T06:59:16.276Z,52.60
2017-07-24T07:01:43.791Z,52.59
2017-07-24T07:04:11.375Z,52.76
2017-07-24T07:06:38.890Z,52.53
2017-07-24T07:09:06.440Z,52.60
2017-07-24T07:11:33.969Z,52.62
2017-07-24T07:14:01.523Z,52.51
2017-07-24T07:16:29.045Z,52.53
2017-07-24T07:18:56.614Z,52.67
2017-07-24T07:21:24.133Z,52.74
2017-07-24T07:23:51.650Z,52.65
2017-07-24T07:26:19.198Z,52.58
2017-07-24T07:28:46.717Z,52.56
2017-07-24T07:31:14.269Z,52.66
2017-07-24T07:33:41.783Z,52.56
2017-07-24T07:36:09.334Z,52.51
2017-07-24T07:38:36.844Z,52.51
2017-07-24T07:41:04.389Z,52.58
2017-07-24T07:43:31.905Z,52.57
2017-07-24T07:45:59.456Z,52.56
2017-07-24T07:48:26.973Z,52.61
2017-07-24T07:50:54.524Z,52.47
2017-07-24T07:53:22.040Z,52.58
2017-07-24T07:55:49.590Z,52.50
2017-07-24T07:58:17.116Z,52.62
2017-07-24T08:00:44.678Z,52.47
2017-07-24T08:03:12.196Z,52.51
2017-07-24T08:05:39.750Z,52.55
2017-07-24T08:08:07.272Z,52.57
2017-07-24T08:10:34.847Z,52.68
2017-07-24T08:13:02.371Z,52.67
2017-07-24T08:15:29.885Z,52.62
2017-07-24T08:17:57.429Z,52.64
2017-07-24T08:20:24.940Z,52.58
2017-07-24T08:22:52.480Z,52.71
2017-07-24T08:25:19.998Z,52.76
2017-07-24T08:27:47.554Z,52.74
2017-07-24T08:30:15.073Z,52.68
2017-07-24T08:32:42.614Z,52.67
2017-07-24T08:35:10.132Z,52.63
2017-07-24T08:37:38.536Z,52.80
2017-07-24T08:40:06.070Z,52.77
2017-07-24T08:42:33.617Z,52.50
2017-07-24T08:45:01.199Z,52.40
2017-07-24T08:47:28.740Z,52.44
2017-07-24T08:49:56.259Z,52.25
2017-07-24T08:52:23.807Z,52.22
2017-07-24T08:54:51.321Z,52.12
2017-07-24T08:57:18.864Z,52.14
2017-07-24T08:59:46.393Z,52.13
2017-07-24T09:02:13.950Z,52.03
2017-07-24T09:04:41.467Z,51.93
2017-07-24T09:07:08.987Z,51.82
2017-07-24T09:09:36.548Z,51.68
2017-07-24T09:12:04.069Z,51.36
2017-07-24T09:14:31.613Z,51.05
2017-07-24T09:16:59.126Z,50.76
2017-07-24T09:19:26.687Z,50.47
2017-07-24T09:21:54.207Z,50.40
2017-07-24T09:24:21.752Z,50.20
2017-07-24T09:26:49.269Z,50.24
2017-07-24T09:29:16.824Z,50.08
2017-07-24T09:31:44.350Z,50.01
2017-07-24T09:34:11.898Z,49.89
2017-07-24T09:36:39.414Z,49.78
2017-07-24T09:39:06.960Z,49.69
2017-07-24T09:41:34.480Z,49.75
2017-07-24T09:44:02.038Z,49.79
2017-07-24T09:46:29.558Z,49.75
2017-07-24T09:48:57.107Z,49.85
2017-07-24T09:51:24.621Z,49.84
2017-07-24T09:53:52.171Z,49.91
2017-07-24T09:56:19.688Z,49.96
2017-07-24T09:58:47.206Z,50.03
2017-07-24T10:01:14.766Z,49.96
2017-07-24T10:03:42.285Z,49.95
2017-07-24T10:06:09.834Z,50.03
2017-07-24T10:08:37.348Z,49.92
2017-07-24T10:11:04.899Z,49.97
2017-07-24T10:13:32.417Z,49.88
2017-07-24T10:15:59.959Z,49.80
2017-07-24T10:18:27.486Z,49.86
2017-07-24T10:20:55.026Z,49.94
2017-07-24T10:23:22.546Z,49.92
2017-07-24T10:25:50.102Z,50.01
2017-07-24T10:28:17.620Z,50.06
2017-07-24T10:30:45.176Z,50.05
2017-07-24T10:33:12.706Z,50.11
2017-07-24T10:35:40.254Z,50.18
2017-07-24T10:38:07.772Z,50.25
2017-07-24T10:40:35.325Z,50.16
2017-07-24T10:43:02.837Z,50.12
2017-07-24T10:45:30.394Z,50.03
2017-07-24T10:47:57.918Z,49.95
2017-07-24T10:50:25.438Z,49.89
2017-07-24T10:52:52.977Z,49.83
2017-07-24T10:55:20.488Z,49.65
2017-07-24T10:57:48.070Z,49.62
2017-07-24T11:00:15.590Z,49.51
2017-07-24T11:02:43.151Z,49.49
2017-07-24T11:05:10.667Z,49.46
2017-07-24T11:07:38.216Z,49.40
2017-07-24T11:10:05.735Z,49.36
2017-07-24T11:12:33.280Z,49.38
2017-07-24T11:15:00.793Z,49.30
2017-07-24T11:17:28.354Z,49.40
2017-07-24T11:19:55.875Z,49.36
2017-07-24T11:22:23.434Z,49.34
2017-07-24T11:24:50.953Z,49.32
2017-07-24T11:27:18.515Z,49.25
2017-07-24T11:29:46.037Z,49.35
2017-07-24T11:32:13.573Z,49.27
2017-07-24T11:34:41.121Z,49.14
2017-07-24T11:37:08.641Z,49.21
2017-07-24T11:39:36.188Z,49.24
2017-07-24T11:42:03.714Z,49.23
2017-07-24T11:44:31.261Z,49.26
2017-07-24T11:46:58.785Z,49.28
2017-07-24T11:49:26.349Z,49.14
2017-07-24T11:51:53.860Z,49.10
2017-07-24T11:54:21.407Z,49.10
2017-07-24T11:56:48.928Z,49.06
2017-07-24T11:59:16.471Z,49.12
2017-07-24T12:01:43.984Z,49.09
2017-07-24T12:04:11.536Z,49.09
2017-07-24T12:06:39.056Z,49.11
2017-07-24T12:09:06.598Z,49.20
2017-07-24T12:11:34.126Z,49.20
2017-07-24T12:14:01.672Z,49.24
2017-07-24T12:16:29.190Z,49.24
2017-07-24T12:18:56.705Z,49.25
2017-07-24T12:21:24.262Z,49.32
2017-07-24T12:23:51.778Z,49.35
2017-07-24T12:26:19.333Z,49.37
2017-07-24T12:28:46.851Z,49.38
2017-07-24T12:31:14.396Z,49.36
2017-07-24T12:33:41.913Z,49.35
2017-07-24T12:36:09.461Z,49.26
2017-07-24T12:38:36.981Z,49.24
2017-07-24T12:41:04.530Z,49.13
2017-07-24T12:43:32.043Z,49.05
2017-07-24T12:45:59.580Z,49.04
2017-07-24T12:48:27.092Z,48.96
2017-07-24T12:50:54.632Z,49.03
2017-07-24T12:53:22.150Z,49.00
2017-07-24T12:55:49.698Z,48.95
2017-07-24T12:58:17.209Z,48.90
2017-07-24T13:00:44.769Z,48.89
2017-07-24T13:03:12.287Z,48.94
2017-07-24T13:05:39.837Z,49.11
2017-07-24T13:08:07.361Z,49.09
2017-07-24T13:10:34.875Z,49.20
2017-07-24T13:13:02.430Z,49.24
2017-07-24T13:15:29.949Z,49.34
2017-07-24T13:17:57.500Z,49.35
2017-07-24T13:20:25.017Z,49.41
2017-07-24T13:22:52.581Z,49.55
2017-07-24T13:25:20.095Z,49.51
2017-07-24T13:27:47.643Z,49.59
2017-07-24T13:30:15.170Z,49.62
2017-07-24T13:32:42.713Z,49.67
2017-07-24T13:35:10.227Z,49.59
2017-07-24T13:37:37.779Z,49.61
2017-07-24T13:40:05.298Z,49.66
2017-07-24T13:42:32.862Z,49.65
2017-07-24T13:45:00.385Z,49.69
2017-07-24T13:47:27.939Z,49.68
2017-07-24T13:49:55.459Z,49.64
2017-07-24T13:52:22.974Z,49.55
2017-07-24T13:54:50.511Z,49.53
2017-07-24T13:57:18.029Z,49.53
2017-07-24T13:59:45.590Z,49.65
2017-07-24T14:02:13.111Z,49.63
2017-07-24T14:04:40.658Z,49.60
2017-07-24T14:07:08.221Z,49.56
2017-07-24T14:09:35.769Z,49.65
2017-07-24T14:12:03.294Z,49.64
2017-07-24T14:14:30.847Z,49.72
2017-07-24T14:16:58.368Z,49.79
2017-07-24T14:19:25.917Z,49.75
2017-07-24T14:21:53.436Z,49.79
2017-07-24T14:24:20.993Z,49.87
2017-07-24T14:26:48.513Z,49.93
2017-07-24T14:29:16.061Z,49.83
2017-07-24T14:31:43.583Z,49.83
2017-07-24T14:34:11.132Z,49.85
2017-07-24T14:36:38.646Z,49.95
2017-07-24T14:39:06.198Z,50.02
2017-07-24T14:41:33.717Z,50.26
2017-07-24T14:44:01.236Z,50.01
2017-07-24T14:46:28.782Z,50.20
2017-07-24T14:48:56.309Z,50.10
2017-07-24T14:51:23.851Z,50.11
2017-07-24T14:53:51.368Z,50.12
2017-07-24T14:56:18.914Z,50.13
2017-07-24T14:58:46.440Z,50.10
2017-07-24T15:01:13.988Z,50.11
2017-07-24T15:03:41.506Z,50.00
2017-07-24T15:06:09.057Z,50.06
2017-07-24T15:08:36.580Z,50.00
2017-07-24T15:11:04.126Z,49.98
2017-07-24T15:13:31.642Z,49.88
2017-07-24T15:15:59.195Z,49.84
2017-07-24T15:18:26.723Z,49.90
2017-07-24T15:20:54.274Z,49.75
2017-07-24T15:23:21.790Z,49.68
2017-07-24T15:25:49.339Z,49.58
2017-07-24T15:28:16.890Z,49.52
2017-07-24T15:30:44.405Z,49.51
2017-07-24T15:33:11.967Z,49.57
2017-07-24T15:35:39.503Z,49.68
2017-07-24T15:38:07.054Z,49.62
2017-07-24T15:40:34.569Z,49.47
2017-07-24T15:43:02.110Z,49.39
2017-07-24T15:45:29.629Z,49.28
2017-07-24T15:47:57.185Z,49.27
2017-07-24T15:50:24.698Z,49.50
2017-07-24T15:52:52.242Z,49.40
2017-07-24T15:55:19.762Z,49.50
2017-07-24T15:57:47.312Z,49.62
2017-07-24T16:00:14.822Z,49.73
2017-07-24T16:02:42.369Z,49.78
2017-07-24T16:05:09.890Z,49.92
2017-07-24T16:07:37.430Z,49.98
2017-07-24T16:10:04.951Z,49.99
2017-07-24T16:12:32.472Z,50.12
2017-07-24T16:15:00.023Z,50.20
2017-07-24T16:17:27.541Z,50.31
2017-07-24T16:19:55.101Z,50.29
2017-07-24T16:22:22.616Z,50.35
2017-07-24T16:24:50.166Z,50.44
2017-07-24T16:27:17.682Z,50.47
2017-07-24T16:29:45.233Z,50.44
2017-07-24T16:32:12.757Z,50.42
2017-07-24T16:34:40.318Z,50.46
2017-07-24T16:37:07.836Z,50.51
2017-07-24T16:39:35.390Z,50.51
2017-07-24T16:42:02.914Z,50.51
2017-07-24T16:44:30.460Z,50.66
2017-07-24T16:46:57.982Z,50.74
2017-07-24T16:49:25.537Z,50.76
2017-07-24T16:51:53.057Z,50.75
2017-07-24T16:54:20.607Z,50.61
2017-07-24T16:56:48.130Z,50.56
2017-07-24T16:59:15.649Z,50.46
2017-07-24T17:01:43.208Z,50.49
2017-07-24T17:04:10.729Z,50.25
2017-07-24T17:06:38.272Z,50.16
2017-07-24T17:09:05.788Z,50.05
2017-07-24T17:11:33.337Z,50.02
2017-07-24T17:14:00.862Z,49.96
2017-07-24T17:16:28.416Z,50.06
2017-07-24T17:18:55.937Z,50.04
2017-07-24T17:21:23.489Z,50.00
2017-07-24T17:23:51.013Z,49.95
2017-07-24T17:26:18.570Z,49.99
2017-07-24T17:28:46.086Z,49.90
2017-07-24T17:31:13.640Z,49.93
2017-07-24T17:33:41.155Z,49.98
2017-07-24T17:36:08.694Z,49.91
2017-07-24T17:38:36.213Z,49.89
2017-07-24T17:41:03.769Z,49.86
2017-07-24T17:43:31.290Z,49.74
2017-07-24T17:45:58.803Z,49.77
2017-07-24T17:48:26.362Z,49.76
2017-07-24T17:50:53.878Z,49.70
2017-07-24T17:53:21.430Z,49.70
2017-07-24T17:55:48.947Z,49.64
2017-07-24T17:58:16.496Z,49.52
2017-07-24T18:00:44.022Z,49.50
2017-07-24T18:03:11.577Z,49.59
2017-07-24T18:05:39.103Z,49.59
2017-07-24T18:08:06.655Z,49.48
2017-07-24T18:10:34.175Z,49.47
2017-07-24T18:13:01.724Z,49.55
2017-07-24T18:15:29.239Z,49.54
2017-07-24T18:17:56.788Z,49.58
2017-07-24T18:20:24.306Z,49.52
2017-07-24T18:22:51.863Z,49.51
2017-07-24T18:25:19.389Z,49.66
2017-07-24T18:27:46.947Z,49.54
2017-07-24T18:30:14.460Z,49.53
2017-07-24T18:32:42.042Z,49.52
2017-07-24T18:35:09.563Z,49.63
2017-07-24T18:37:37.094Z,49.58
2017-07-24T18:40:04.649Z,49.55
2017-07-24T18:42:32.170Z,49.52
2017-07-24T18:44:59.723Z,49.58
2017-07-24T18:47:27.255Z,49.66
2017-07-24T18:49:54.801Z,49.97
2017-07-24T18:52:22.325Z,50.06
2017-07-24T18:54:49.862Z,50.11
2017-07-24T18:57:17.387Z,50.03
2017-07-24T18:59:44.941Z,50.01
2017-07-24T19:02:12.457Z,50.25
2017-07-24T19:04:40.016Z,50.29
2017-07-24T19:07:07.539Z,50.43
2017-07-24T19:09:35.099Z,50.39
2017-07-24T19:12:02.624Z,50.38
2017-07-24T19:14:30.166Z,50.31
2017-07-24T19:16:57.687Z,50.32
2017-07-24T19:19:25.261Z,50.23
2017-07-24T19:21:52.805Z,50.33
2017-07-24T19:24:20.332Z,50.35
2017-07-24T19:26:47.890Z,50.67
2017-07-24T19:29:15.405Z,50.73
2017-07-24T19:31:42.986Z,50.96
2017-07-24T19:34:10.515Z,50.91
2017-07-24T19:36:38.064Z,50.87
2017-07-24T19:39:05.589Z,50.94
2017-07-24T19:41:33.136Z,51.15
2017-07-24T19:44:00.670Z,51.16
2017-07-24T19:46:28.237Z,51.26
2017-07-24T19:48:55.770Z,51.47
2017-07-24T19:51:23.332Z,51.59
2017-07-24T19:53:50.861Z,51.62
2017-07-24T19:56:18.427Z,51.61
2017-07-24T19:58:45.946Z,51.76
2017-07-24T20:01:13.527Z,51.83
2017-07-24T20:03:41.059Z,51.81
2017-07-24T20:06:08.581Z,51.93
2017-07-24T20:08:36.138Z,52.07
2017-07-24T20:11:03.661Z,51.98
2017-07-24T20:13:31.217Z,51.84
2017-07-24T20:15:58.736Z,51.81
2017-07-24T20:18:26.296Z,51.71
2017-07-24T20:20:53.821Z,51.75
2017-07-24T20:23:21.390Z,51.64
2017-07-24T20:25:48.916Z,51.57
2017-07-24T20:28:16.476Z,51.48
2017-07-24T20:30:44.000Z,51.46
2017-07-24T20:33:11.566Z,51.37
2017-07-24T20:35:39.226Z,51.43
2017-07-24T20:38:06.783Z,51.32
2017-07-24T20:40:34.322Z,51.30
2017-07-24T20:43:01.882Z,51.20
2017-07-24T20:45:29.413Z,51.18
2017-07-24T20:47:56.981Z,51.11
2017-07-24T20:50:24.499Z,51.11
2017-07-24T20:52:52.022Z,51.05
2017-07-24T20:55:19.573Z,51.00
2017-07-24T20:57:47.089Z,50.95
2017-07-24T21:00:14.649Z,50.99
2017-07-24T21:02:42.176Z,50.96
2017-07-24T21:05:09.734Z,50.90
2017-07-24T21:07:37.261Z,50.86
2017-07-24T21:10:04.804Z,50.91
2017-07-24T21:12:32.331Z,50.90
2017-07-24T21:14:59.881Z,50.97
2017-07-24T21:17:27.406Z,50.92
2017-07-24T21:19:54.963Z,50.84
2017-07-24T21:22:22.476Z,50.82
2017-07-24T21:24:50.030Z,50.91
2017-07-24T21:27:17.549Z,50.91
2017-07-24T21:29:45.105Z,50.92
2017-07-24T21:32:12.631Z,50.96
2017-07-24T21:34:40.175Z,50.88
2017-07-24T21:37:07.710Z,50.90
2017-07-24T21:39:35.236Z,51.29
2017-07-24T21:42:02.786Z,51.24
2017-07-24T21:44:30.309Z,51.31
2017-07-24T21:46:57.852Z,51.35
2017-07-24T21:49:25.366Z,51.36
2017-07-24T21:51:52.931Z,51.35
2017-07-24T21:54:20.457Z,51.26
2017-07-24T21:56:48.016Z,51.70
2017-07-24T21:59:15.542Z,51.82
2017-07-24T22:01:43.093Z,51.92
2017-07-24T22:04:10.638Z,52.04
2017-07-24T22:06:38.184Z,51.99
2017-07-24T22:09:05.703Z,52.37
2017-07-24T22:11:33.261Z,52.17
2017-07-24T22:14:00.786Z,52.27
2017-07-24T22:16:28.344Z,52.24
2017-07-24T22:18:55.860Z,52.40
2017-07-24T22:21:23.413Z,52.44
2017-07-24T22:23:50.932Z,52.65
2017-07-24T22:26:18.450Z,52.99
2017-07-24T22:28:46.003Z,53.44
2017-07-24T22:31:13.521Z,53.29
2017-07-24T22:33:41.072Z,53.52
2017-07-24T22:36:08.589Z,53.86
2017-07-24T22:38:36.137Z,53.73
2017-07-24T22:41:03.695Z,53.76
2017-07-24T22:43:31.250Z,54.01
2017-07-24T22:45:58.815Z,54.17
2017-07-24T22:48:26.378Z,54.02
2017-07-24T22:50:53.894Z,53.96
2017-07-24T22:53:21.440Z,54.18
2017-07-24T22:55:48.972Z,54.28
2017-07-24T22:58:16.513Z,54.48
2017-07-24T23:00:44.159Z,54.65
2017-07-24T23:03:11.714Z,54.84
2017-07-24T23:05:39.246Z,54.55
2017-07-24T23:08:06.794Z,54.40
2017-07-24T23:10:34.411Z,54.18
2017-07-24T23:13:01.962Z,54.24
2017-07-24T23:15:29.494Z,54.06
2017-07-24T23:17:57.023Z,54.10
2017-07-24T23:20:24.578Z,54.16
2017-07-24T23:22:52.096Z,54.10
2017-07-24T23:25:19.646Z,54.21
2017-07-24T23:27:47.171Z,54.00
2017-07-24T23:30:14.728Z,54.22
2017-07-24T23:32:42.264Z,54.52
2017-07-24T23:35:09.835Z,54.64
2017-07-24T23:37:37.359Z,54.59
2017-07-24T23:40:04.902Z,54.57
2017-07-24T23:42:32.416Z,54.74
2017-07-24T23:44:59.964Z,54.82
2017-07-24T23:47:27.484Z,54.57
2017-07-24T23:49:55.045Z,54.84
2017-07-24T23:52:22.570Z,55.09
2017-07-24T23:54:50.121Z,55.13
2017-07-24T23:57:17.642Z,55.05
2017-07-24T23:59:45.193Z,54.98
